Time,TemperatureF,DewpointF,PressureIn,WindDirection,WindDirectionDegrees,WindSpeedMPH,WindSpeedGustMPH,Humidity,HourlyPrecipIn,Conditions,Clouds,dailyrainin,SoftwareType,DateUTC
2013-05-07 00:01:00,54.3,47.3,30.31,South,180,0.0,0.0,77,0.00,,,0.00,pywws,2013-05-07 04:01:00,
2013-05-07 00:06:00,54.0,47.6,30.31,SW,225,0.0,0.0,79,0.00,,,0.00,pywws,2013-05-07 04:06:00,
2013-05-07 00:11:00,53.8,47.4,30.31,SW,225,0.0,0.0,79,0.00,,,0.00,pywws,2013-05-07 04:11:00,
2013-05-07 00:16:00,53.6,47.6,30.31,SE,135,0.0,0.0,80,0.00,,,0.00,pywws,2013-05-07 04:16:00,
2013-05-07 00:21:00,53.6,47.6,30.32,SE,135,0.0,0.0,80,0.00,,,0.00,pywws,2013-05-07 04:21:00,
2013-05-07 00:31:00,53.4,47.4,30.32,SE,135,0.0,0.0,80,0.00,,,0.00,pywws,2013-05-07 04:31:00,
2013-05-07 00:36:00,53.2,47.6,30.32,SE,135,0.0,0.0,81,0.00,,,0.00,pywws,2013-05-07 04:36:00,
2013-05-07 00:41:00,53.1,47.7,30.32,SE,135,0.0,0.7,82,0.00,,,0.00,pywws,2013-05-07 04:41:00,
2013-05-07 00:46:00,53.1,48.0,30.32,SE,135,0.0,0.0,83,0.00,,,0.00,pywws,2013-05-07 04:46:00,
2013-05-07 00:51:00,53.1,48.0,30.32,SE,135,0.0,0.0,83,0.00,,,0.00,pywws,2013-05-07 04:51:00,
2013-05-07 01:01:00,53.1,48.0,30.33,SE,135,0.0,0.0,83,0.00,,,0.00,pywws,2013-05-07 05:01:00,
2013-05-07 01:06:00,53.1,48.0,30.33,SE,135,0.0,0.0,83,0.00,,,0.00,pywws,2013-05-07 05:06:00,
2013-05-07 01:11:00,53.1,48.0,30.33,SE,135,0.0,0.0,83,0.00,,,0.00,pywws,2013-05-07 05:11:00,
2013-05-07 01:16:00,53.2,48.2,30.33,SE,135,0.0,0.0,83,0.00,,,0.00,pywws,2013-05-07 05:16:00,
2013-05-07 01:21:00,53.2,48.2,30.33,SE,135,0.0,0.0,83,0.00,,,0.00,pywws,2013-05-07 05:21:00,
2013-05-07 01:31:00,53.4,48.4,30.34,SE,135,0.0,0.0,83,0.00,,,0.00,pywws,2013-05-07 05:31:00,
2013-05-07 01:35:00,53.4,48.4,30.34,SE,135,0.0,0.0,83,0.00,,,0.00,pywws,2013-05-07 05:35:00,
2013-05-07 01:40:00,53.6,48.6,30.34,SE,135,0.0,0.0,83,0.00,,,0.00,pywws,2013-05-07 05:40:00,
2013-05-07 01:45:00,53.4,48.7,30.34,SE,135,0.0,0.0,84,0.00,,,0.00,pywws,2013-05-07 05:45:00,
2013-05-07 02:01:00,53.2,48.5,30.35,SE,135,0.0,0.0,84,0.00,,,0.00,pywws,2013-05-07 06:01:00,
2013-05-07 02:06:00,53.2,48.5,30.35,West,270,0.0,0.0,84,0.00,,,0.00,pywws,2013-05-07 06:06:00,
2013-05-07 02:11:00,53.1,48.7,30.35,East,90,0.0,0.0,85,0.00,,,0.00,pywws,2013-05-07 06:11:00,
2013-05-07 02:16:00,52.9,48.5,30.35,East,90,0.0,0.0,85,0.00,,,0.00,pywws,2013-05-07 06:16:00,
2013-05-07 02:21:00,52.7,48.3,30.36,East,90,0.0,0.0,85,0.00,,,0.00,pywws,2013-05-07 06:21:00,
2013-05-07 02:31:00,52.7,48.3,30.36,East,90,0.0,0.0,85,0.00,,,0.00,pywws,2013-05-07 06:31:00,
2013-05-07 02:36:00,52.3,48.3,30.36,East,90,0.0,0.0,86,0.00,,,0.00,pywws,2013-05-07 06:36:00,
2013-05-07 02:41:00,52.3,48.3,30.36,East,90,0.0,0.0,86,0.00,,,0.00,pywws,2013-05-07 06:41:00,
2013-05-07 02:46:00,52.3,48.6,30.36,East,90,0.0,0.0,87,0.00,,,0.00,pywws,2013-05-07 06:46:00,
2013-05-07 02:51:00,52.3,48.6,30.36,East,90,0.0,0.0,87,0.00,,,0.00,pywws,2013-05-07 06:51:00,
2013-05-07 03:01:00,52.3,48.6,30.37,East,90,0.0,0.0,87,0.00,,,0.00,pywws,2013-05-07 07:01:00,
2013-05-07 03:06:00,52.3,48.9,30.37,South,180,0.0,0.0,88,0.00,,,0.00,pywws,2013-05-07 07:06:00,
2013-05-07 03:11:00,52.5,49.1,30.37,South,180,0.0,0.0,88,0.00,,,0.00,pywws,2013-05-07 07:11:00,
2013-05-07 03:16:00,52.7,49.2,30.37,South,180,0.0,0.0,88,0.00,,,0.00,pywws,2013-05-07 07:16:00,
2013-05-07 03:21:00,52.7,49.2,30.37,South,180,0.0,0.0,88,0.00,,,0.00,pywws,2013-05-07 07:21:00,
2013-05-07 03:31:00,52.7,49.2,30.37,South,180,0.0,0.0,88,0.00,,,0.00,pywws,2013-05-07 07:31:00,
2013-05-07 03:36:00,52.5,49.1,30.37,South,180,0.0,0.0,88,0.00,,,0.00,pywws,2013-05-07 07:36:00,
2013-05-07 03:41:00,52.5,48.8,30.38,South,180,0.0,0.0,87,0.00,,,0.00,pywws,2013-05-07 07:41:00,
2013-05-07 03:46:00,52.3,48.6,30.38,South,180,0.0,0.0,87,0.00,,,0.00,pywws,2013-05-07 07:46:00,
2013-05-07 03:51:00,52.3,48.6,30.38,South,180,0.0,0.0,87,0.00,,,0.00,pywws,2013-05-07 07:51:00,
2013-05-07 04:01:00,52.0,48.2,30.38,South,180,0.0,0.0,87,0.00,,,0.00,pywws,2013-05-07 08:01:00,
2013-05-07 04:06:00,51.8,48.4,30.38,South,180,0.0,0.0,88,0.00,,,0.00,pywws,2013-05-07 08:06:00,
2013-05-07 04:11:00,51.4,48.0,30.38,South,180,0.0,0.0,88,0.00,,,0.00,pywws,2013-05-07 08:11:00,
2013-05-07 04:16:00,51.3,47.8,30.38,South,180,0.0,0.0,88,0.00,,,0.00,pywws,2013-05-07 08:16:00,
2013-05-07 04:21:00,51.1,48.0,30.38,South,180,0.0,0.0,89,0.00,,,0.00,pywws,2013-05-07 08:21:00,
2013-05-07 04:31:00,50.9,47.8,30.39,South,180,0.0,0.0,89,0.00,,,0.00,pywws,2013-05-07 08:31:00,
2013-05-07 04:36:00,50.7,47.9,30.39,South,180,0.0,0.0,90,0.00,,,0.00,pywws,2013-05-07 08:36:00,
2013-05-07 04:41:00,50.5,47.7,30.39,South,180,0.0,0.0,90,0.00,,,0.00,pywws,2013-05-07 08:41:00,
2013-05-07 04:46:00,50.5,47.7,30.39,South,180,0.0,0.0,90,0.00,,,0.00,pywws,2013-05-07 08:46:00,
2013-05-07 04:51:00,50.5,48.0,30.40,South,180,0.0,0.0,91,0.00,,,0.00,pywws,2013-05-07 08:51:00,
2013-05-07 05:01:00,50.5,48.0,30.40,NE,45,0.0,0.0,91,0.00,,,0.00,pywws,2013-05-07 09:01:00,
2013-05-07 05:06:00,50.5,48.0,30.40,South,180,0.0,0.0,91,0.00,,,0.00,pywws,2013-05-07 09:06:00,
2013-05-07 05:11:00,50.9,48.4,30.40,South,180,0.0,0.0,91,0.00,,,0.00,pywws,2013-05-07 09:11:00,
2013-05-07 05:16:00,51.1,48.5,30.40,South,180,0.0,0.0,91,0.00,,,0.00,pywws,2013-05-07 09:16:00,
2013-05-07 05:21:00,51.3,48.7,30.40,South,180,0.0,0.0,91,0.00,,,0.00,pywws,2013-05-07 09:21:00,
2013-05-07 05:31:00,51.6,49.1,30.40,South,180,0.0,0.0,91,0.00,,,0.00,pywws,2013-05-07 09:31:00,
2013-05-07 05:35:00,51.8,49.3,30.41,South,180,0.0,0.0,91,0.00,,,0.00,pywws,2013-05-07 09:35:00,
2013-05-07 05:40:00,51.8,49.3,30.41,South,180,0.0,0.0,91,0.00,,,0.00,pywws,2013-05-07 09:40:00,
2013-05-07 05:45:00,51.8,49.3,30.41,South,180,0.0,0.0,91,0.00,,,0.00,pywws,2013-05-07 09:45:00,
2013-05-07 05:50:00,51.8,49.0,30.41,South,180,0.0,0.0,90,0.00,,,0.00,pywws,2013-05-07 09:50:00,
2013-05-07 06:01:00,51.8,49.0,30.41,South,180,0.0,0.0,90,0.00,,,0.00,pywws,2013-05-07 10:01:00,
2013-05-07 06:06:00,52.0,49.1,30.42,South,180,0.0,0.0,90,0.00,,,0.00,pywws,2013-05-07 10:06:00,
2013-05-07 06:11:00,52.3,49.8,30.42,South,180,0.0,0.0,91,0.00,,,0.00,pywws,2013-05-07 10:11:00,
2013-05-07 06:16:00,52.5,49.7,30.42,South,180,0.0,0.0,90,0.00,,,0.00,pywws,2013-05-07 10:16:00,
2013-05-07 06:21:00,52.7,49.8,30.42,South,180,0.0,0.0,90,0.00,,,0.00,pywws,2013-05-07 10:21:00,
2013-05-07 06:31:00,52.9,50.0,30.42,South,180,0.0,0.0,90,0.00,,,0.00,pywws,2013-05-07 10:31:00,
2013-05-07 06:36:00,53.2,50.4,30.42,South,180,0.0,0.0,90,0.00,,,0.00,pywws,2013-05-07 10:36:00,
2013-05-07 06:41:00,53.2,50.4,30.42,South,180,0.0,0.0,90,0.00,,,0.00,pywws,2013-05-07 10:41:00,
2013-05-07 06:46:00,53.2,50.4,30.42,South,180,0.0,0.0,90,0.00,,,0.00,pywws,2013-05-07 10:46:00,
2013-05-07 06:51:00,53.2,50.4,30.42,South,180,0.0,0.0,90,0.00,,,0.00,pywws,2013-05-07 10:51:00,
2013-05-07 07:01:00,53.2,50.7,30.42,South,180,0.0,0.0,91,0.00,,,0.00,pywws,2013-05-07 11:01:00,
2013-05-07 07:06:00,53.1,50.5,30.42,South,180,0.0,0.0,91,0.00,,,0.00,pywws,2013-05-07 11:06:00,
2013-05-07 07:11:00,53.1,50.8,30.42,South,180,0.0,0.0,92,0.00,,,0.00,pywws,2013-05-07 11:11:00,
2013-05-07 07:16:00,53.1,50.8,30.42,South,180,0.0,1.6,92,0.00,,,0.00,pywws,2013-05-07 11:16:00,
2013-05-07 07:21:00,53.2,51.3,30.42,South,180,0.0,0.7,93,0.00,,,0.00,pywws,2013-05-07 11:21:00,
2013-05-07 07:31:00,53.2,51.3,30.42,South,180,0.0,0.7,93,0.00,,,0.00,pywws,2013-05-07 11:31:00,
2013-05-07 07:35:00,53.2,51.6,30.42,South,180,0.0,0.0,94,0.00,,,0.00,pywws,2013-05-07 11:35:00,
2013-05-07 07:40:00,53.4,51.7,30.42,South,180,0.0,0.0,94,0.00,,,0.00,pywws,2013-05-07 11:40:00,
2013-05-07 07:45:00,53.6,51.9,30.42,South,180,0.0,0.7,94,0.00,,,0.00,pywws,2013-05-07 11:45:00,
2013-05-07 07:50:00,53.6,51.9,30.42,South,180,0.0,0.0,94,0.00,,,0.00,pywws,2013-05-07 11:50:00,
2013-05-07 08:01:00,53.8,52.1,30.41,South,180,0.0,0.0,94,0.00,,,0.00,pywws,2013-05-07 12:01:00,
2013-05-07 08:06:00,53.8,52.1,30.41,South,180,0.0,0.0,94,0.00,,,0.00,pywws,2013-05-07 12:06:00,
2013-05-07 08:11:00,54.0,52.3,30.41,South,180,0.0,0.7,94,0.00,,,0.00,pywws,2013-05-07 12:11:00,
2013-05-07 08:16:00,54.0,52.3,30.41,South,180,0.0,1.6,94,0.00,,,0.00,pywws,2013-05-07 12:16:00,
2013-05-07 08:21:00,54.1,52.5,30.41,South,180,0.0,0.0,94,0.00,,,0.00,pywws,2013-05-07 12:21:00,
2013-05-07 08:31:00,54.1,52.5,30.40,South,180,0.0,0.7,94,0.00,,,0.00,pywws,2013-05-07 12:31:00,
2013-05-07 08:35:00,54.7,53.0,30.40,South,180,0.0,1.6,94,0.01,,,0.01,pywws,2013-05-07 12:35:00,
2013-05-07 08:40:00,54.9,53.2,30.40,South,180,0.0,0.7,94,0.01,,,0.01,pywws,2013-05-07 12:40:00,
2013-05-07 08:45:00,55.2,53.5,30.40,South,180,0.7,2.2,94,0.01,,,0.01,pywws,2013-05-07 12:45:00,
2013-05-07 08:50:00,55.4,53.7,30.40,South,180,0.7,2.2,94,0.01,,,0.01,pywws,2013-05-07 12:50:00,
2013-05-07 09:01:00,55.6,53.9,30.40,South,180,1.6,3.8,94,0.01,,,0.01,pywws,2013-05-07 13:01:00,
2013-05-07 09:05:00,56.1,54.4,30.40,South,180,0.0,0.0,94,0.01,,,0.01,pywws,2013-05-07 13:05:00,
2013-05-07 09:10:00,56.5,54.5,30.40,South,180,0.7,1.6,93,0.01,,,0.01,pywws,2013-05-07 13:10:00,
2013-05-07 09:15:00,56.5,54.5,30.40,South,180,0.0,1.6,93,0.01,,,0.01,pywws,2013-05-07 13:15:00,
2013-05-07 09:20:00,57.0,54.7,30.40,South,180,0.7,2.2,92,0.01,,,0.01,pywws,2013-05-07 13:20:00,
2013-05-07 09:31:00,57.4,55.1,30.40,South,180,0.0,1.6,92,0.01,,,0.01,pywws,2013-05-07 13:31:00,
2013-05-07 09:36:00,58.6,55.7,30.39,South,180,0.0,1.6,90,0.00,,,0.01,pywws,2013-05-07 13:36:00,
2013-05-07 09:41:00,58.8,55.9,30.39,South,180,0.7,1.6,90,0.00,,,0.01,pywws,2013-05-07 13:41:00,
2013-05-07 09:46:00,59.0,56.1,30.39,South,180,0.0,1.6,90,0.00,,,0.01,pywws,2013-05-07 13:46:00,
2013-05-07 09:51:00,59.0,55.1,30.39,SE,135,0.0,0.0,87,0.00,,,0.01,pywws,2013-05-07 13:51:00,
2013-05-07 10:01:00,59.2,55.3,30.39,SE,135,0.0,0.7,87,0.00,,,0.01,pywws,2013-05-07 14:01:00,
2013-05-07 10:06:00,60.3,55.4,30.39,West,270,2.2,3.8,84,0.00,,,0.01,pywws,2013-05-07 14:06:00,
2013-05-07 10:11:00,60.1,55.6,30.39,East,90,0.0,0.0,85,0.00,,,0.01,pywws,2013-05-07 14:11:00,
2013-05-07 10:16:00,60.8,56.3,30.39,SW,225,0.0,1.6,85,0.00,,,0.01,pywws,2013-05-07 14:16:00,
2013-05-07 10:21:00,61.3,55.8,30.38,West,270,0.7,1.6,82,0.00,,,0.01,pywws,2013-05-07 14:21:00,
2013-05-07 10:31:00,61.2,55.6,30.38,SW,225,0.0,1.6,82,0.00,,,0.01,pywws,2013-05-07 14:31:00,
2013-05-07 10:35:00,61.5,55.6,30.38,East,90,0.0,0.0,81,0.00,,,0.01,pywws,2013-05-07 14:35:00,
2013-05-07 10:40:00,62.1,54.8,30.38,West,270,0.7,2.2,77,0.00,,,0.01,pywws,2013-05-07 14:40:00,
2013-05-07 10:45:00,62.6,55.3,30.38,SE,135,0.0,1.6,77,0.00,,,0.01,pywws,2013-05-07 14:45:00,
2013-05-07 10:50:00,63.3,55.3,30.38,East,90,0.0,1.6,75,0.00,,,0.01,pywws,2013-05-07 14:50:00,
2013-05-07 11:01:00,63.0,54.9,30.38,South,180,0.0,1.6,75,0.00,,,0.01,pywws,2013-05-07 15:01:00,
2013-05-07 11:05:00,62.2,54.6,30.38,South,180,0.7,3.1,76,0.00,,,0.01,pywws,2013-05-07 15:05:00,
2013-05-07 11:10:00,62.1,54.4,30.38,East,90,0.0,1.6,76,0.00,,,0.01,pywws,2013-05-07 15:10:00,
2013-05-07 11:15:00,62.8,55.1,30.38,SE,135,1.6,3.1,76,0.00,,,0.01,pywws,2013-05-07 15:15:00,
2013-05-07 11:20:00,64.9,55.7,30.38,SE,135,0.7,1.6,72,0.00,,,0.01,pywws,2013-05-07 15:20:00,
2013-05-07 11:31:00,64.9,54.9,30.38,SE,135,0.7,3.1,70,0.00,,,0.01,pywws,2013-05-07 15:31:00,
2013-05-07 11:36:00,64.6,53.8,30.38,NE,45,1.6,2.2,68,0.00,,,0.01,pywws,2013-05-07 15:36:00,
2013-05-07 11:41:00,65.1,52.6,30.38,SE,135,1.6,3.1,64,0.00,,,0.01,pywws,2013-05-07 15:41:00,
2013-05-07 11:46:00,66.4,54.3,30.37,SE,135,0.7,1.6,65,0.00,,,0.01,pywws,2013-05-07 15:46:00,
2013-05-07 11:51:00,67.6,53.2,30.37,SW,225,2.2,3.8,60,0.00,,,0.01,pywws,2013-05-07 15:51:00,
2013-05-07 12:01:00,66.9,53.0,30.37,West,270,1.6,3.1,61,0.00,,,0.01,pywws,2013-05-07 16:01:00,
2013-05-07 12:05:00,65.3,53.2,30.37,South,180,1.6,3.8,65,0.00,,,0.01,pywws,2013-05-07 16:05:00,
2013-05-07 12:10:00,68.0,54.0,30.37,West,270,3.8,6.0,61,0.00,,,0.01,pywws,2013-05-07 16:10:00,
2013-05-07 12:15:00,68.9,53.5,30.37,SW,225,1.6,3.1,58,0.00,,,0.01,pywws,2013-05-07 16:15:00,
2013-05-07 12:20:00,68.9,52.1,30.37,West,270,3.1,5.4,55,0.00,,,0.01,pywws,2013-05-07 16:20:00,
2013-05-07 12:31:00,70.0,54.5,30.36,West,270,1.6,3.1,58,0.00,,,0.01,pywws,2013-05-07 16:31:00,
2013-05-07 12:35:00,69.1,53.7,30.36,SE,135,0.0,0.7,58,0.00,,,0.01,pywws,2013-05-07 16:35:00,
2013-05-07 12:40:00,68.4,53.9,30.35,West,270,2.2,3.8,60,0.00,,,0.01,pywws,2013-05-07 16:40:00,
2013-05-07 12:45:00,67.6,53.2,30.35,West,270,0.7,2.2,60,0.00,,,0.01,pywws,2013-05-07 16:45:00,
2013-05-07 12:50:00,67.3,53.4,30.35,South,180,0.0,0.7,61,0.00,,,0.01,pywws,2013-05-07 16:50:00,
2013-05-07 13:01:00,67.8,54.3,30.35,West,270,0.0,0.0,62,0.00,,,0.01,pywws,2013-05-07 17:01:00,
2013-05-07 13:06:00,67.5,53.5,30.35,West,270,0.0,1.6,61,0.00,,,0.01,pywws,2013-05-07 17:06:00,
2013-05-07 13:11:00,67.1,52.3,30.35,WSW,248,1.6,3.1,59,0.00,,,0.01,pywws,2013-05-07 17:11:00,
2013-05-07 13:16:00,67.5,53.1,30.35,SW,225,0.7,2.2,60,0.00,,,0.01,pywws,2013-05-07 17:16:00,
2013-05-07 13:21:00,68.7,52.9,30.35,SE,135,1.6,3.1,57,0.00,,,0.01,pywws,2013-05-07 17:21:00,
2013-05-07 13:31:00,68.9,52.1,30.35,SE,135,1.6,3.1,55,0.00,,,0.01,pywws,2013-05-07 17:31:00,
2013-05-07 13:35:00,70.7,50.0,30.34,ENE,68,3.1,6.0,48,0.00,,,0.01,pywws,2013-05-07 17:35:00,
2013-05-07 13:40:00,71.4,50.7,30.34,SW,225,2.2,5.4,48,0.00,,,0.01,pywws,2013-05-07 17:40:00,
2013-05-07 13:45:00,71.1,50.9,30.34,West,270,0.7,3.1,49,0.00,,,0.01,pywws,2013-05-07 17:45:00,
2013-05-07 13:50:00,70.3,50.3,30.34,SE,135,0.7,2.2,49,0.00,,,0.01,pywws,2013-05-07 17:50:00,
2013-05-07 14:01:00,70.7,50.6,30.33,SW,225,1.6,3.8,49,0.00,,,0.01,pywws,2013-05-07 18:01:00,
2013-05-07 14:06:00,71.8,51.6,30.33,NW,315,6.0,8.3,49,0.00,,,0.01,pywws,2013-05-07 18:06:00,
2013-05-07 14:11:00,72.0,51.7,30.33,South,180,3.1,6.0,49,0.00,,,0.01,pywws,2013-05-07 18:11:00,
2013-05-07 14:16:00,72.7,51.3,30.32,East,90,2.2,4.5,47,0.00,,,0.01,pywws,2013-05-07 18:16:00,
2013-05-07 14:21:00,72.1,49.0,30.32,West,270,4.5,7.6,44,0.00,,,0.01,pywws,2013-05-07 18:21:00,
2013-05-07 14:31:00,71.4,50.1,30.32,South,180,0.7,2.2,47,0.00,,,0.01,pywws,2013-05-07 18:31:00,
2013-05-07 14:36:00,70.0,49.4,30.32,SSE,158,4.5,7.6,48,0.00,,,0.01,pywws,2013-05-07 18:36:00,
2013-05-07 14:41:00,69.6,50.1,30.32,SE,135,1.6,5.4,50,0.00,,,0.01,pywws,2013-05-07 18:41:00,
2013-05-07 14:46:00,69.4,50.0,30.32,West,270,1.6,3.1,50,0.00,,,0.01,pywws,2013-05-07 18:46:00,
2013-05-07 14:51:00,69.4,50.0,30.32,NW,315,1.6,3.8,50,0.00,,,0.01,pywws,2013-05-07 18:51:00,
2013-05-07 15:01:00,70.2,51.2,30.32,SE,135,2.2,5.4,51,0.00,,,0.01,pywws,2013-05-07 19:01:00,
2013-05-07 15:05:00,72.0,50.6,30.31,SW,225,2.2,3.8,47,0.00,,,0.01,pywws,2013-05-07 19:05:00,
2013-05-07 15:10:00,71.8,49.3,30.31,WSW,248,3.8,5.4,45,0.00,,,0.01,pywws,2013-05-07 19:10:00,
2013-05-07 15:15:00,71.6,50.3,30.31,SW,225,3.1,7.6,47,0.00,,,0.01,pywws,2013-05-07 19:15:00,
2013-05-07 15:20:00,72.1,50.2,30.31,WNW,292,1.6,3.8,46,0.00,,,0.01,pywws,2013-05-07 19:20:00,
2013-05-07 15:31:00,72.1,49.6,30.31,SW,225,2.2,5.4,45,0.00,,,0.01,pywws,2013-05-07 19:31:00,
2013-05-07 15:35:00,73.0,48.6,30.30,West,270,3.8,9.2,42,0.00,,,0.01,pywws,2013-05-07 19:35:00,
2013-05-07 15:40:00,72.7,49.5,30.30,South,180,1.6,3.1,44,0.00,,,0.01,pywws,2013-05-07 19:40:00,
2013-05-07 15:45:00,73.0,50.4,30.29,West,270,2.2,6.9,45,0.00,,,0.01,pywws,2013-05-07 19:45:00,
2013-05-07 15:50:00,73.0,49.8,30.29,SW,225,2.2,9.2,44,0.00,,,0.01,pywws,2013-05-07 19:50:00,
2013-05-07 16:01:00,72.7,49.5,30.29,NW,315,0.7,2.2,44,0.00,,,0.01,pywws,2013-05-07 20:01:00,
2013-05-07 16:05:00,73.0,47.9,30.29,NW,315,1.6,3.8,41,0.00,,,0.01,pywws,2013-05-07 20:05:00,
2013-05-07 16:10:00,72.7,49.5,30.29,WNW,292,0.7,7.6,44,0.00,,,0.01,pywws,2013-05-07 20:10:00,
2013-05-07 16:15:00,72.0,48.8,30.28,WSW,248,1.6,3.8,44,0.00,,,0.01,pywws,2013-05-07 20:15:00,
2013-05-07 16:20:00,71.2,49.4,30.28,West,270,0.7,2.2,46,0.00,,,0.01,pywws,2013-05-07 20:20:00,
2013-05-07 16:31:00,70.5,49.3,30.28,SW,225,1.6,2.2,47,0.00,,,0.01,pywws,2013-05-07 20:31:00,
2013-05-07 16:35:00,70.7,50.0,30.28,East,90,0.7,2.2,48,0.00,,,0.01,pywws,2013-05-07 20:35:00,
2013-05-07 16:40:00,70.7,50.0,30.27,SE,135,3.8,5.4,48,0.00,,,0.01,pywws,2013-05-07 20:40:00,
2013-05-07 16:45:00,70.5,49.3,30.27,South,180,1.6,3.1,47,0.00,,,0.01,pywws,2013-05-07 20:45:00,
2013-05-07 16:50:00,70.9,49.6,30.27,SW,225,2.2,4.5,47,0.00,,,0.01,pywws,2013-05-07 20:50:00,
2013-05-07 17:01:00,70.3,49.7,30.27,SE,135,0.7,2.2,48,0.00,,,0.01,pywws,2013-05-07 21:01:00,
2013-05-07 17:06:00,70.9,50.2,30.27,North,0,0.7,3.1,48,0.00,,,0.01,pywws,2013-05-07 21:06:00,
2013-05-07 17:11:00,70.7,49.5,30.27,West,270,2.2,3.8,47,0.00,,,0.01,pywws,2013-05-07 21:11:00,
2013-05-07 17:16:00,70.0,49.4,30.27,North,0,0.0,2.2,48,0.00,,,0.01,pywws,2013-05-07 21:16:00,
2013-05-07 17:21:00,69.4,48.9,30.27,NW,315,0.0,1.6,48,0.00,,,0.01,pywws,2013-05-07 21:21:00,
2013-05-07 17:31:00,70.2,50.1,30.27,WNW,292,3.1,4.5,49,0.00,,,0.01,pywws,2013-05-07 21:31:00,
2013-05-07 17:35:00,71.4,50.1,30.27,SW,225,1.6,3.8,47,0.00,,,0.01,pywws,2013-05-07 21:35:00,
2013-05-07 17:40:00,71.4,50.1,30.27,West,270,2.2,3.8,47,0.00,,,0.01,pywws,2013-05-07 21:40:00,
2013-05-07 17:45:00,71.4,50.1,30.26,SW,225,1.6,3.1,47,0.00,,,0.01,pywws,2013-05-07 21:45:00,
2013-05-07 17:50:00,71.8,50.5,30.26,NE,45,2.2,6.9,47,0.00,,,0.01,pywws,2013-05-07 21:50:00,
2013-05-07 18:01:00,71.6,50.9,30.26,NW,315,1.6,3.1,48,0.00,,,0.01,pywws,2013-05-07 22:01:00,
2013-05-07 18:05:00,71.4,50.1,30.26,SW,225,1.6,3.8,47,0.00,,,0.01,pywws,2013-05-07 22:05:00,
2013-05-07 18:10:00,72.1,51.4,30.26,West,270,0.0,2.2,48,0.00,,,0.01,pywws,2013-05-07 22:10:00,
2013-05-07 18:15:00,72.9,50.3,30.26,West,270,3.8,5.4,45,0.00,,,0.01,pywws,2013-05-07 22:15:00,
2013-05-07 18:20:00,72.7,50.7,30.26,West,270,1.6,5.4,46,0.00,,,0.01,pywws,2013-05-07 22:20:00,
2013-05-07 18:31:00,72.1,50.2,30.26,SW,225,3.1,5.4,46,0.00,,,0.01,pywws,2013-05-07 22:31:00,
2013-05-07 18:35:00,70.9,49.6,30.26,NW,315,2.2,4.5,47,0.00,,,0.01,pywws,2013-05-07 22:35:00,
2013-05-07 18:40:00,70.0,49.9,30.26,East,90,0.0,0.7,49,0.00,,,0.01,pywws,2013-05-07 22:40:00,
2013-05-07 18:45:00,69.4,50.0,30.26,South,180,1.6,3.8,50,0.00,,,0.01,pywws,2013-05-07 22:45:00,
2013-05-07 18:50:00,69.1,50.2,30.25,West,270,3.1,6.0,51,0.00,,,0.01,pywws,2013-05-07 22:50:00,
2013-05-07 19:01:00,68.7,49.9,30.25,NW,315,1.6,3.8,51,0.00,,,0.01,pywws,2013-05-07 23:01:00,
2013-05-07 19:06:00,68.7,49.9,30.25,SW,225,0.7,2.2,51,0.00,,,0.01,pywws,2013-05-07 23:06:00,
2013-05-07 19:11:00,68.5,49.7,30.25,West,270,2.2,5.4,51,0.00,,,0.01,pywws,2013-05-07 23:11:00,
2013-05-07 19:16:00,68.2,49.9,30.25,NE,45,0.7,2.2,52,0.00,,,0.01,pywws,2013-05-07 23:16:00,
2013-05-07 19:21:00,68.2,49.9,30.25,SW,225,1.6,2.2,52,0.00,,,0.01,pywws,2013-05-07 23:21:00,
2013-05-07 19:31:00,67.8,50.1,30.25,West,270,0.0,0.7,53,0.00,,,0.01,pywws,2013-05-07 23:31:00,
2013-05-07 19:35:00,67.1,50.4,30.25,West,270,0.7,1.6,55,0.00,,,0.01,pywws,2013-05-07 23:35:00,
2013-05-07 19:40:00,66.9,50.7,30.25,East,90,0.7,1.6,56,0.00,,,0.01,pywws,2013-05-07 23:40:00,
2013-05-07 19:45:00,66.6,50.4,30.25,West,270,1.6,3.1,56,0.00,,,0.01,pywws,2013-05-07 23:45:00,
2013-05-07 19:50:00,66.0,50.3,30.25,WSW,248,0.0,3.1,57,0.00,,,0.01,pywws,2013-05-07 23:50:00,
2013-05-07 20:01:00,65.8,50.2,30.25,SW,225,0.7,3.1,57,0.00,,,0.01,pywws,2013-05-08 00:01:00,
2013-05-07 20:05:00,65.1,50.0,30.25,West,270,1.6,3.1,58,0.00,,,0.01,pywws,2013-05-08 00:05:00,
2013-05-07 20:10:00,64.8,49.6,30.25,SE,135,0.0,1.6,58,0.00,,,0.01,pywws,2013-05-08 00:10:00,
2013-05-07 20:15:00,64.2,49.6,30.25,South,180,0.7,1.6,59,0.00,,,0.01,pywws,2013-05-08 00:15:00,
2013-05-07 20:20:00,64.0,49.4,30.25,South,180,0.0,0.0,59,0.00,,,0.01,pywws,2013-05-08 00:20:00,
2013-05-07 20:31:00,63.7,49.5,30.24,West,270,0.0,1.6,60,0.00,,,0.01,pywws,2013-05-08 00:31:00,
2013-05-07 20:35:00,62.8,49.6,30.24,West,270,0.7,1.6,62,0.00,,,0.01,pywws,2013-05-08 00:35:00,
2013-05-07 20:40:00,62.6,49.4,30.24,West,270,0.7,1.6,62,0.00,,,0.01,pywws,2013-05-08 00:40:00,
2013-05-07 20:45:00,62.2,49.5,30.25,South,180,0.0,0.7,63,0.00,,,0.01,pywws,2013-05-08 00:45:00,
2013-05-07 20:50:00,62.1,49.3,30.25,SW,225,0.0,0.7,63,0.00,,,0.01,pywws,2013-05-08 00:50:00,
2013-05-07 21:01:00,61.9,49.1,30.25,NE,45,0.0,0.0,63,0.00,,,0.01,pywws,2013-05-08 01:01:00,
2013-05-07 21:05:00,61.2,48.9,30.25,SW,225,0.0,0.7,64,0.00,,,0.01,pywws,2013-05-08 01:05:00,
2013-05-07 21:10:00,61.2,49.3,30.25,SW,225,0.0,0.0,65,0.00,,,0.01,pywws,2013-05-08 01:10:00,
2013-05-07 21:15:00,60.8,49.4,30.25,SW,225,0.0,0.0,66,0.00,,,0.01,pywws,2013-05-08 01:15:00,
2013-05-07 21:20:00,60.4,49.0,30.25,SW,225,0.0,0.0,66,0.00,,,0.01,pywws,2013-05-08 01:20:00,
2013-05-07 21:31:00,60.1,49.1,30.25,SW,225,0.0,0.0,67,0.00,,,0.01,pywws,2013-05-08 01:31:00,
2013-05-07 21:35:00,59.4,49.2,30.25,SW,225,0.0,0.0,69,0.00,,,0.01,pywws,2013-05-08 01:35:00,
2013-05-07 21:40:00,59.0,49.2,30.25,South,180,0.0,0.0,70,0.00,,,0.01,pywws,2013-05-08 01:40:00,
2013-05-07 21:45:00,58.8,49.8,30.26,SE,135,0.0,0.0,72,0.00,,,0.01,pywws,2013-05-08 01:45:00,
2013-05-07 21:50:00,58.5,49.5,30.26,SE,135,0.0,0.0,72,0.00,,,0.01,pywws,2013-05-08 01:50:00,
2013-05-07 22:01:00,58.3,49.7,30.26,North,0,0.0,0.0,73,0.00,,,0.01,pywws,2013-05-08 02:01:00,
2013-05-07 22:05:00,57.7,49.5,30.26,South,180,0.0,0.0,74,0.00,,,0.01,pywws,2013-05-08 02:05:00,
2013-05-07 22:10:00,57.6,49.3,30.26,South,180,0.0,0.0,74,0.00,,,0.01,pywws,2013-05-08 02:10:00,
2013-05-07 22:15:00,57.4,49.5,30.26,South,180,0.0,0.0,75,0.00,,,0.01,pywws,2013-05-08 02:15:00,
2013-05-07 22:20:00,57.2,49.3,30.27,South,180,0.0,0.0,75,0.00,,,0.01,pywws,2013-05-08 02:20:00,
2013-05-07 22:31:00,57.0,49.5,30.27,South,180,0.0,0.0,76,0.00,,,0.01,pywws,2013-05-08 02:31:00,
2013-05-07 22:35:00,56.8,49.7,30.27,South,180,0.0,0.0,77,0.00,,,0.01,pywws,2013-05-08 02:35:00,
2013-05-07 22:40:00,56.8,49.7,30.27,South,180,0.0,0.0,77,0.00,,,0.01,pywws,2013-05-08 02:40:00,
2013-05-07 22:45:00,56.8,49.7,30.27,NE,45,0.0,0.7,77,0.00,,,0.01,pywws,2013-05-08 02:45:00,
2013-05-07 22:50:00,56.5,49.4,30.28,NE,45,0.0,0.0,77,0.00,,,0.01,pywws,2013-05-08 02:50:00,
2013-05-07 23:01:00,56.3,49.2,30.28,NE,45,0.0,0.0,77,0.00,,,0.01,pywws,2013-05-08 03:01:00,
2013-05-07 23:06:00,56.1,49.4,30.28,SE,135,0.0,0.0,78,0.00,,,0.01,pywws,2013-05-08 03:06:00,
2013-05-07 23:11:00,56.1,49.4,30.29,NE,45,0.0,1.6,78,0.00,,,0.01,pywws,2013-05-08 03:11:00,
2013-05-07 23:16:00,56.1,49.4,30.29,SE,135,0.7,1.6,78,0.00,,,0.01,pywws,2013-05-08 03:16:00,
2013-05-07 23:21:00,55.9,49.5,30.29,SE,135,0.0,0.7,79,0.00,,,0.01,pywws,2013-05-08 03:21:00,
2013-05-07 23:31:00,55.8,49.3,30.29,SE,135,0.0,0.7,79,0.00,,,0.01,pywws,2013-05-08 03:31:00,
2013-05-07 23:35:00,55.4,49.3,30.30,NW,315,0.0,1.6,80,0.00,,,0.01,pywws,2013-05-08 03:35:00,
2013-05-07 23:40:00,55.2,49.5,30.30,NW,315,0.0,0.0,81,0.00,,,0.01,pywws,2013-05-08 03:40:00,
2013-05-07 23:45:00,55.0,49.3,30.30,NW,315,0.0,0.0,81,0.00,,,0.01,pywws,2013-05-08 03:45:00,
2013-05-07 23:50:00,55.0,49.3,30.30,NW,315,0.0,0.0,81,0.00,,,0.01,pywws,2013-05-08 03:50:00,